Time;durP1;ratioP1;P1;durP2;ratioP2;P2;SDS_P1;SDS_P2;PMS_P1;PMS_P2;Temp;Humidity;BMP_temperature;BMP_pressure;BME280_temperature;BME280_humidity;BME280_pressure;Samples;Min_cycle;Max_cycle;Signal;HPM_P1;HPM_P2
2023/12/12 00:00:10;;;;;;;21.05;12.95;;;;;;;;;;1047218;28;20123;-69
2023/12/12 00:00:41;;;;;;;23.42;13.02;;;;;;;;;;1044382;28;20056;-68
2023/12/12 00:01:32;;;;;;;18.98;11.52;;;;;;;;;;1050001;28;20129;-68
2023/12/12 00:02:03;;;;;;;21.55;13.32;;;;;;;;;;1048062;28;20066;-68
2023/12/12 00:02:34;;;;;;;23.45;13.80;;;;;;;;;;1049754;28;20047;-70
2023/12/12 00:03:04;;;;;;;19.60;13.30;;;;;;;;;;1049497;28;20453;-69
2023/12/12 00:03:35;;;;;;;20.77;13.27;;;;;;;;;;1049979;28;20695;-69
2023/12/12 00:04:05;;;;;;;21.63;13.15;;;;;;;;;;1049025;28;20055;-68
2023/12/12 00:04:37;;;;;;;19.35;13.48;;;;;;;;;;1048732;28;20900;-69
2023/12/12 00:05:08;;;;;;;23.60;13.75;;;;;;;;;;1049889;28;20507;-69
2023/12/12 00:05:38;;;;;;;22.20;13.38;;;;;;;;;;1051532;28;20472;-70
2023/12/12 00:06:10;;;;;;;24.15;14.45;;;;;;;;;;1049980;28;20587;-70
2023/12/12 00:06:40;;;;;;;23.30;14.27;;;;;;;;;;1051207;28;20036;-70
2023/12/12 00:07:11;;;;;;;25.13;14.85;;;;;;;;;;1050578;28;20050;-69
2023/12/12 00:07:41;;;;;;;22.83;13.80;;;;;;;;;;1051336;28;20391;-68
2023/12/12 00:08:12;;;;;;;22.13;13.85;;;;;;;;;;1050779;28;20085;-68
2023/12/12 00:08:43;;;;;;;24.95;14.23;;;;;;;;;;1049384;28;20044;-69
2023/12/12 00:09:13;;;;;;;21.17;13.52;;;;;;;;;;1050472;28;20052;-69
2023/12/12 00:09:44;;;;;;;23.83;14.10;;;;;;;;;;1048942;28;20085;-69
2023/12/12 00:10:15;;;;;;;26.38;13.48;;;;;;;;;;1050662;28;20073;-69
2023/12/12 00:10:45;;;;;;;22.48;14.18;;;;;;;;;;1048567;28;20040;-68
2023/12/12 00:11:16;;;;;;;25.65;13.15;;;;;;;;;;1050155;28;20040;-69
2023/12/12 00:11:46;;;;;;;23.30;14.23;;;;;;;;;;1049582;28;20032;-69
2023/12/12 00:12:17;;;;;;;26.58;14.23;;;;;;;;;;1051004;28;20043;-70
2023/12/12 00:12:47;;;;;;;21.20;12.75;;;;;;;;;;1050018;28;20085;-69
2023/12/12 00:13:18;;;;;;;24.65;14.45;;;;;;;;;;1051342;28;20070;-69
2023/12/12 00:13:49;;;;;;;20.35;14.00;;;;;;;;;;1048096;28;20044;-69
2023/12/12 00:14:19;;;;;;;23.75;15.10;;;;;;;;;;1051486;28;20040;-69
2023/12/12 00:14:50;;;;;;;20.90;12.93;;;;;;;;;;1050645;28;20407;-70
2023/12/12 00:15:20;;;;;;;21.85;13.73;;;;;;;;;;1050255;28;20036;-69
2023/12/12 00:15:51;;;;;;;23.17;14.18;;;;;;;;;;1049434;28;20048;-69
2023/12/12 00:16:21;;;;;;;23.08;13.10;;;;;;;;;;1048810;28;20032;-71
2023/12/12 00:16:52;;;;;;;23.77;14.27;;;;;;;;;;1049915;28;20143;-69
2023/12/12 00:17:23;;;;;;;27.92;15.93;;;;;;;;;;1048629;28;20040;-70
2023/12/12 00:17:53;;;;;;;23.48;14.57;;;;;;;;;;1051281;28;20032;-70
2023/12/12 00:18:24;;;;;;;21.77;13.48;;;;;;;;;;1051152;28;20425;-69
2023/12/12 00:18:54;;;;;;;23.13;14.02;;;;;;;;;;1050503;28;20760;-69
2023/12/12 00:19:25;;;;;;;22.92;13.88;;;;;;;;;;1051162;28;20756;-67
2023/12/12 00:19:55;;;;;;;22.55;12.95;;;;;;;;;;1050373;28;20050;-69
2023/12/12 00:20:26;;;;;;;20.50;12.30;;;;;;;;;;1049777;28;20118;-69
2023/12/12 00:20:57;;;;;;;23.85;13.90;;;;;;;;;;1050623;28;20044;-69
2023/12/12 00:21:28;;;;;;;19.63;13.25;;;;;;;;;;1050922;28;20388;-70
2023/12/12 00:21:58;;;;;;;23.08;12.52;;;;;;;;;;1047548;28;20412;-68
2023/12/12 00:22:29;;;;;;;22.92;13.82;;;;;;;;;;1051677;28;20032;-69
2023/12/12 00:22:59;;;;;;;24.38;14.18;;;;;;;;;;1050206;28;20129;-69
2023/12/12 00:23:30;;;;;;;23.75;13.68;;;;;;;;;;1051394;28;20032;-69
2023/12/12 00:24:00;;;;;;;22.17;13.10;;;;;;;;;;1048315;28;20055;-69
2023/12/12 00:24:31;;;;;;;20.85;12.95;;;;;;;;;;1050331;28;20049;-68
2023/12/12 00:25:02;;;;;;;22.38;13.40;;;;;;;;;;1050490;28;20120;-69
2023/12/12 00:25:32;;;;;;;22.23;13.40;;;;;;;;;;1051055;28;20059;-69
2023/12/12 00:26:03;;;;;;;21.90;14.32;;;;;;;;;;1049606;28;20130;-69
2023/12/12 00:26:34;;;;;;;25.73;14.10;;;;;;;;;;1047598;28;20044;-69
2023/12/12 00:27:05;;;;;;;19.30;13.95;;;;;;;;;;1049577;28;20036;-69
2023/12/12 00:27:35;;;;;;;22.13;14.23;;;;;;;;;;1051253;28;20129;-69
2023/12/12 00:28:06;;;;;;;23.50;13.90;;;;;;;;;;1050001;28;20059;-70
2023/12/12 00:28:36;;;;;;;23.67;13.70;;;;;;;;;;1050379;28;20135;-69
2023/12/12 00:29:07;;;;;;;21.83;13.48;;;;;;;;;;1050919;28;20123;-68
2023/12/12 00:29:38;;;;;;;23.55;12.40;;;;;;;;;;1049804;28;20105;-69
2023/12/12 00:30:09;;;;;;;25.23;14.10;;;;;;;;;;1049018;28;20040;-70
2023/12/12 00:30:39;;;;;;;22.00;13.55;;;;;;;;;;1047177;28;20072;-69
2023/12/12 00:31:10;;;;;;;22.17;13.02;;;;;;;;;;1050520;28;20054;-69
2023/12/12 00:31:41;;;;;;;21.92;12.88;;;;;;;;;;1049069;28;20056;-70
2023/12/12 00:32:12;;;;;;;20.17;12.68;;;;;;;;;;1050227;28;20058;-69
2023/12/12 00:32:42;;;;;;;21.23;12.75;;;;;;;;;;1048836;28;20168;-70
2023/12/12 00:33:13;;;;;;;19.92;13.45;;;;;;;;;;1050883;28;20100;-69
2023/12/12 00:33:43;;;;;;;24.90;13.65;;;;;;;;;;1047501;28;20694;-69
2023/12/12 00:34:14;;;;;;;22.67;13.88;;;;;;;;;;1047986;28;20499;-68
2023/12/12 00:34:45;;;;;;;22.75;13.52;;;;;;;;;;1048535;28;20106;-70
2023/12/12 00:35:15;;;;;;;22.50;13.07;;;;;;;;;;1049369;28;20122;-69
2023/12/12 00:35:46;;;;;;;23.65;13.82;;;;;;;;;;1048710;28;20415;-69
2023/12/12 00:36:16;;;;;;;23.60;14.05;;;;;;;;;;1047276;28;20504;-70
2023/12/12 00:36:47;;;;;;;21.92;13.27;;;;;;;;;;1044487;28;20162;-68
2023/12/12 00:37:18;;;;;;;20.55;13.15;;;;;;;;;;1048898;28;20040;-69
2023/12/12 00:37:48;;;;;;;21.27;13.60;;;;;;;;;;1050973;28;20097;-69
2023/12/12 00:38:19;;;;;;;21.52;12.73;;;;;;;;;;1050543;28;20052;-69
2023/12/12 00:38:49;;;;;;;23.27;14.25;;;;;;;;;;1050662;28;20044;-69
2023/12/12 00:39:20;;;;;;;24.42;13.65;;;;;;;;;;1050520;28;20048;-70
2023/12/12 00:39:51;;;;;;;21.60;11.95;;;;;;;;;;1050580;28;20603;-68
2023/12/12 00:40:21;;;;;;;19.40;13.35;;;;;;;;;;1049368;28;20036;-69
2023/12/12 00:40:53;;;;;;;20.23;11.93;;;;;;;;;;1050643;28;20044;-69
2023/12/12 00:41:33;;;;;;;21.83;12.60;;;;;;;;;;1050543;28;20582;-70
2023/12/12 00:42:03;;;;;;;22.30;12.60;;;;;;;;;;1049793;28;21716;-69
2023/12/12 00:42:34;;;;;;;23.05;12.48;;;;;;;;;;1049723;28;20514;-69
2023/12/12 00:43:05;;;;;;;20.98;12.63;;;;;;;;;;1049927;28;20044;-70
2023/12/12 00:43:35;;;;;;;21.27;12.55;;;;;;;;;;1050132;28;20048;-70
2023/12/12 00:44:06;;;;;;;21.17;13.25;;;;;;;;;;1049319;28;20047;-68
2023/12/12 00:44:36;;;;;;;19.52;12.00;;;;;;;;;;1050218;28;20118;-68
2023/12/12 00:45:07;;;;;;;20.80;13.30;;;;;;;;;;1046758;28;20105;-69
2023/12/12 00:45:38;;;;;;;22.63;12.90;;;;;;;;;;1050183;28;20040;-69
2023/12/12 00:46:10;;;;;;;19.63;11.63;;;;;;;;;;1044736;28;20044;-70
2023/12/12 00:46:40;;;;;;;20.40;12.68;;;;;;;;;;1044026;28;20729;-69
2023/12/12 00:47:11;;;;;;;19.17;12.80;;;;;;;;;;1048827;28;20495;-70
2023/12/12 00:47:42;;;;;;;23.55;12.32;;;;;;;;;;1049963;28;20142;-69
2023/12/12 00:48:13;;;;;;;19.05;11.85;;;;;;;;;;1051424;28;20737;-68
2023/12/12 00:48:43;;;;;;;20.10;12.80;;;;;;;;;;1050367;28;20714;-69
2023/12/12 00:49:14;;;;;;;21.20;12.77;;;;;;;;;;1053710;28;20153;-69
2023/12/12 00:49:44;;;;;;;20.10;12.75;;;;;;;;;;1053887;28;20085;-69
2023/12/12 00:50:15;;;;;;;21.70;12.05;;;;;;;;;;1049825;28;20040;-69
2023/12/12 00:50:46;;;;;;;19.70;12.20;;;;;;;;;;1048493;28;20036;-70
2023/12/12 00:51:16;;;;;;;21.70;13.05;;;;;;;;;;1046400;28;20040;-69
2023/12/12 00:51:47;;;;;;;26.05;13.18;;;;;;;;;;1045726;28;20048;-69
2023/12/12 00:52:17;;;;;;;21.73;12.15;;;;;;;;;;1045860;28;20041;-69
2023/12/12 00:52:48;;;;;;;22.27;12.70;;;;;;;;;;1047120;28;20075;-70
2023/12/12 00:53:19;;;;;;;21.95;13.30;;;;;;;;;;1051470;28;20130;-68
2023/12/12 00:53:49;;;;;;;23.02;12.82;;;;;;;;;;1049623;28;20047;-70
2023/12/12 00:54:20;;;;;;;19.25;12.30;;;;;;;;;;1050150;28;20047;-70
2023/12/12 00:54:51;;;;;;;18.83;11.98;;;;;;;;;;1048872;28;20040;-70
2023/12/12 00:55:21;;;;;;;19.38;12.68;;;;;;;;;;1050357;28;20052;-69
2023/12/12 00:55:52;;;;;;;17.98;11.52;;;;;;;;;;1050128;28;20050;-69
2023/12/12 00:56:22;;;;;;;23.67;12.95;;;;;;;;;;1050638;28;20055;-69
2023/12/12 00:56:53;;;;;;;21.40;12.27;;;;;;;;;;1049519;28;20044;-70
2023/12/12 00:57:23;;;;;;;21.05;12.32;;;;;;;;;;1050687;28;20115;-69
2023/12/12 00:57:54;;;;;;;20.77;12.43;;;;;;;;;;1050528;28;20078;-69
2023/12/12 00:58:25;;;;;;;21.45;12.68;;;;;;;;;;1050945;28;20048;-70
2023/12/12 00:58:55;;;;;;;22.40;12.20;;;;;;;;;;1048307;28;20082;-69
2023/12/12 00:59:26;;;;;;;21.60;12.68;;;;;;;;;;1048392;28;20111;-68
2023/12/12 00:59:56;;;;;;;19.90;12.50;;;;;;;;;;1051194;28;20048;-69
2023/12/12 01:00:27;;;;;;;22.15;11.82;;;;;;;;;;1049683;28;20079;-71
2023/12/12 01:00:57;;;;;;;22.92;12.50;;;;;;;;;;1051120;28;20468;-68
2023/12/12 01:01:28;;;;;;;23.05;12.85;;;;;;;;;;1049303;28;20036;-69
2023/12/12 01:01:58;;;;;;;20.88;12.45;;;;;;;;;;1049522;28;20040;-68
2023/12/12 01:02:29;;;;;;;24.40;12.30;;;;;;;;;;1049860;28;20035;-69
2023/12/12 01:02:59;;;;;;;18.88;12.23;;;;;;;;;;1049291;28;20048;-68
2023/12/12 01:03:30;;;;;;;21.05;12.95;;;;;;;;;;1050602;28;20048;-68
2023/12/12 01:04:01;;;;;;;22.77;14.05;;;;;;;;;;1050283;28;20058;-68
2023/12/12 01:04:33;;;;;;;20.65;12.57;;;;;;;;;;1049137;28;20040;-69
2023/12/12 01:05:04;;;;;;;23.75;13.02;;;;;;;;;;1049739;28;20057;-68
2023/12/12 01:05:35;;;;;;;23.38;13.80;;;;;;;;;;1048245;28;20059;-69
2023/12/12 01:06:06;;;;;;;19.85;12.77;;;;;;;;;;1050080;28;20633;-70
2023/12/12 01:06:37;;;;;;;26.65;13.27;;;;;;;;;;1050376;28;20115;-69
2023/12/12 01:07:08;;;;;;;24.00;13.00;;;;;;;;;;1048354;28;20520;-68
2023/12/12 01:07:38;;;;;;;21.75;12.70;;;;;;;;;;1050605;28;20110;-69
2023/12/12 01:08:09;;;;;;;19.48;12.65;;;;;;;;;;1049624;28;20040;-68
2023/12/12 01:08:39;;;;;;;27.00;12.82;;;;;;;;;;1049578;28;20098;-69
2023/12/12 01:09:10;;;;;;;24.33;13.40;;;;;;;;;;1049591;28;20488;-69
2023/12/12 01:09:40;;;;;;;22.52;13.88;;;;;;;;;;1050956;28;20052;-70
2023/12/12 01:10:11;;;;;;;23.33;12.80;;;;;;;;;;1050081;28;20567;-69
2023/12/12 01:10:41;;;;;;;23.05;13.23;;;;;;;;;;1050963;28;20048;-69
2023/12/12 01:11:12;;;;;;;19.73;12.32;;;;;;;;;;1049080;28;20580;-69
2023/12/12 01:11:43;;;;;;;23.83;13.02;;;;;;;;;;1050170;28;20102;-69
2023/12/12 01:12:13;;;;;;;21.05;13.27;;;;;;;;;;1043337;28;20520;-69
2023/12/12 01:12:44;;;;;;;20.23;12.05;;;;;;;;;;1042352;28;20527;-69
2023/12/12 01:13:14;;;;;;;20.45;12.05;;;;;;;;;;1045829;28;20048;-69
2023/12/12 01:13:46;;;;;;;22.05;12.80;;;;;;;;;;1044596;28;20143;-70
2023/12/12 01:14:17;;;;;;;19.88;12.77;;;;;;;;;;1044341;28;20431;-69
2023/12/12 01:14:47;;;;;;;23.30;13.98;;;;;;;;;;1043867;28;20425;-69
2023/12/12 01:15:18;;;;;;;18.35;12.40;;;;;;;;;;1046514;28;20151;-68
2023/12/12 01:15:48;;;;;;;20.95;13.05;;;;;;;;;;1045424;28;20515;-69
2023/12/12 01:16:19;;;;;;;21.55;12.95;;;;;;;;;;1045594;28;20048;-69
2023/12/12 01:16:49;;;;;;;21.27;12.73;;;;;;;;;;1044955;28;20094;-69
2023/12/12 01:17:20;;;;;;;23.40;13.95;;;;;;;;;;1046360;28;20070;-69
2023/12/12 01:17:50;;;;;;;21.95;14.25;;;;;;;;;;1046466;28;20115;-70
2023/12/12 01:18:21;;;;;;;23.17;13.15;;;;;;;;;;1049470;28;20047;-69
2023/12/12 01:18:52;;;;;;;24.92;14.20;;;;;;;;;;1047711;28;20484;-68
2023/12/12 01:19:23;;;;;;;24.90;14.13;;;;;;;;;;1051069;28;20044;-70
2023/12/12 01:19:54;;;;;;;22.13;12.85;;;;;;;;;;1048720;28;20063;-70
2023/12/12 01:20:24;;;;;;;19.33;13.02;;;;;;;;;;1050693;28;20422;-68
2023/12/12 01:20:55;;;;;;;26.88;13.32;;;;;;;;;;1047670;28;20058;-70
2023/12/12 01:21:25;;;;;;;24.50;12.82;;;;;;;;;;1049614;28;20068;-69
2023/12/12 01:21:56;;;;;;;25.02;13.73;;;;;;;;;;1050560;28;20046;-68
2023/12/12 01:22:26;;;;;;;20.02;12.88;;;;;;;;;;1050338;28;20119;-69
2023/12/12 01:22:57;;;;;;;21.92;13.15;;;;;;;;;;1048592;28;20115;-69
2023/12/12 01:23:52;;;;;;;20.13;13.35;;;;;;;;;;1049534;28;20068;-69
2023/12/12 01:24:23;;;;;;;22.15;12.63;;;;;;;;;;1050344;28;20502;-69
2023/12/12 01:24:53;;;;;;;19.88;12.23;;;;;;;;;;1048522;28;20068;-69
2023/12/12 01:25:24;;;;;;;23.17;13.15;;;;;;;;;;1050144;28;20051;-69
2023/12/12 01:25:54;;;;;;;20.88;12.13;;;;;;;;;;1049873;28;20047;-69
2023/12/12 01:26:25;;;;;;;19.45;12.57;;;;;;;;;;1049565;28;20440;-70
2023/12/12 01:26:56;;;;;;;20.65;12.80;;;;;;;;;;1048425;28;20396;-69
2023/12/12 01:27:26;;;;;;;19.00;12.70;;;;;;;;;;1048864;28;20039;-69
2023/12/12 01:27:57;;;;;;;18.98;12.40;;;;;;;;;;1050293;28;20040;-69
2023/12/12 01:28:27;;;;;;;20.85;13.18;;;;;;;;;;1047875;28;20041;-69
2023/12/12 01:28:58;;;;;;;21.23;13.15;;;;;;;;;;1050045;28;20456;-69
2023/12/12 01:29:28;;;;;;;23.45;13.05;;;;;;;;;;1050407;28;20115;-69
2023/12/12 01:29:59;;;;;;;20.63;12.65;;;;;;;;;;1050014;28;20101;-69
2023/12/12 01:30:30;;;;;;;19.42;13.05;;;;;;;;;;1050046;28;20040;-69
2023/12/12 01:31:00;;;;;;;20.23;12.75;;;;;;;;;;1050479;28;20055;-69
2023/12/12 01:31:31;;;;;;;23.20;13.63;;;;;;;;;;1048924;28;20110;-69
2023/12/12 01:32:02;;;;;;;22.10;13.00;;;;;;;;;;1049748;28;20391;-70
2023/12/12 01:32:33;;;;;;;21.52;12.40;;;;;;;;;;1049779;28;20077;-70
2023/12/12 01:33:03;;;;;;;20.83;12.43;;;;;;;;;;1050325;28;20082;-69
2023/12/12 01:33:34;;;;;;;20.80;12.65;;;;;;;;;;1049802;28;20036;-69
2023/12/12 01:34:04;;;;;;;21.83;12.30;;;;;;;;;;1049777;28;20127;-69
2023/12/12 01:34:35;;;;;;;20.85;12.90;;;;;;;;;;1050611;28;20544;-68
2023/12/12 01:35:06;;;;;;;27.63;13.38;;;;;;;;;;1050001;28;20048;-68
2023/12/12 01:35:36;;;;;;;20.55;13.27;;;;;;;;;;1050410;28;22028;-69
2023/12/12 01:36:07;;;;;;;21.35;12.70;;;;;;;;;;1049919;28;20039;-70
2023/12/12 01:36:38;;;;;;;22.25;12.90;;;;;;;;;;1049777;28;20044;-70
2023/12/12 01:37:08;;;;;;;19.95;12.55;;;;;;;;;;1048775;28;20554;-69
2023/12/12 01:37:39;;;;;;;23.27;12.70;;;;;;;;;;1050464;28;20450;-70
2023/12/12 01:38:10;;;;;;;22.08;13.00;;;;;;;;;;1049241;28;20115;-69
2023/12/12 01:38:40;;;;;;;21.60;12.05;;;;;;;;;;1049491;28;20051;-69
2023/12/12 01:39:11;;;;;;;21.80;12.98;;;;;;;;;;1047613;28;20415;-69
2023/12/12 01:39:41;;;;;;;21.15;13.05;;;;;;;;;;1049787;28;20052;-70
2023/12/12 01:40:12;;;;;;;20.85;13.25;;;;;;;;;;1046980;28;20522;-69
2023/12/12 01:40:43;;;;;;;22.85;14.05;;;;;;;;;;1049695;28;20048;-69
2023/12/12 01:41:14;;;;;;;20.48;13.50;;;;;;;;;;1048607;28;20079;-69
2023/12/12 01:41:48;;;;;;;22.45;13.20;;;;;;;;;;1049404;28;20047;-69
2023/12/12 01:42:19;;;;;;;20.27;13.15;;;;;;;;;;1049966;28;20112;-69
2023/12/12 01:42:49;;;;;;;21.00;13.23;;;;;;;;;;1048057;28;20051;-70
2023/12/12 01:43:27;;;;;;;20.10;12.38;;;;;;;;;;1049860;28;20051;-69
2023/12/12 01:43:58;;;;;;;20.83;12.93;;;;;;;;;;1050061;28;20036;-69
2023/12/12 01:44:28;;;;;;;21.58;13.70;;;;;;;;;;1047395;28;20036;-69
2023/12/12 01:44:59;;;;;;;18.95;12.48;;;;;;;;;;1046907;28;20051;-69
2023/12/12 01:45:29;;;;;;;22.17;13.63;;;;;;;;;;1048319;28;20028;-68
2023/12/12 01:46:02;;;;;;;24.05;14.57;;;;;;;;;;1051033;28;20054;-69
2023/12/12 01:46:35;;;;;;;25.02;13.75;;;;;;;;;;1048648;28;20044;-70
2023/12/12 01:47:06;;;;;;;19.63;12.75;;;;;;;;;;1050093;28;20059;-70
2023/12/12 01:47:37;;;;;;;23.02;13.80;;;;;;;;;;1049828;28;20040;-71
2023/12/12 01:48:07;;;;;;;18.63;12.90;;;;;;;;;;1048658;28;20056;-69
2023/12/12 01:48:38;;;;;;;24.90;14.75;;;;;;;;;;1051163;28;20494;-68
2023/12/12 01:49:09;;;;;;;21.63;13.95;;;;;;;;;;1050030;28;20502;-69
2023/12/12 01:49:40;;;;;;;19.90;12.90;;;;;;;;;;1050727;28;20040;-70
2023/12/12 01:50:10;;;;;;;24.38;14.18;;;;;;;;;;1047773;28;20059;-69
2023/12/12 01:50:41;;;;;;;22.17;13.98;;;;;;;;;;1049723;28;20044;-69
2023/12/12 01:51:13;;;;;;;21.75;14.00;;;;;;;;;;1049870;28;20410;-68
2023/12/12 01:51:45;;;;;;;22.45;14.07;;;;;;;;;;1049384;28;20047;-71
2023/12/12 01:52:16;;;;;;;22.83;13.85;;;;;;;;;;1049226;28;20095;-69
2023/12/12 01:52:47;;;;;;;22.45;13.27;;;;;;;;;;1050394;28;20385;-69
2023/12/12 01:53:20;;;;;;;23.42;13.82;;;;;;;;;;1049443;28;20130;-69
2023/12/12 01:53:51;;;;;;;22.05;13.45;;;;;;;;;;1048047;28;20055;-68
2023/12/12 01:54:23;;;;;;;24.08;14.15;;;;;;;;;;1047003;28;20037;-70
2023/12/12 01:54:53;;;;;;;22.08;13.73;;;;;;;;;;1048574;28;20036;-69
2023/12/12 01:55:24;;;;;;;26.15;14.43;;;;;;;;;;1050774;28;20052;-69
2023/12/12 01:55:55;;;;;;;23.45;13.57;;;;;;;;;;1049285;28;20118;-69
2023/12/12 01:56:28;;;;;;;21.48;14.80;;;;;;;;;;1049824;28;20131;-70
2023/12/12 01:56:59;;;;;;;24.88;14.10;;;;;;;;;;1049039;28;20164;-69
2023/12/12 01:57:29;;;;;;;25.38;14.82;;;;;;;;;;1050368;28;20040;-69
2023/12/12 01:58:00;;;;;;;23.35;13.70;;;;;;;;;;1049308;28;20059;-69
2023/12/12 01:58:33;;;;;;;26.73;14.48;;;;;;;;;;1049195;28;20039;-69
2023/12/12 01:59:04;;;;;;;24.20;14.30;;;;;;;;;;1048660;28;20829;-70
2023/12/12 01:59:36;;;;;;;24.45;14.80;;;;;;;;;;1051161;28;20890;-69
2023/12/12 02:00:07;;;;;;;24.75;14.73;;;;;;;;;;1049241;28;20064;-68
2023/12/12 02:00:39;;;;;;;21.90;14.27;;;;;;;;;;1047837;28;20099;-69
2023/12/12 02:01:10;;;;;;;24.95;14.45;;;;;;;;;;1048354;28;20405;-69
2023/12/12 02:01:41;;;;;;;25.35;14.68;;;;;;;;;;1049425;28;20047;-69
2023/12/12 02:02:12;;;;;;;24.75;14.23;;;;;;;;;;1049111;28;20058;-69
2023/12/12 02:02:42;;;;;;;24.85;14.75;;;;;;;;;;1049256;28;20117;-69
2023/12/12 02:03:14;;;;;;;22.13;14.57;;;;;;;;;;1043319;28;20051;-68
2023/12/12 02:03:46;;;;;;;22.33;14.15;;;;;;;;;;1040011;28;20894;-69
2023/12/12 02:04:17;;;;;;;24.08;13.75;;;;;;;;;;1043255;28;20048;-68
2023/12/12 02:04:48;;;;;;;27.27;15.68;;;;;;;;;;1047321;28;20176;-69
2023/12/12 02:05:20;;;;;;;25.17;14.98;;;;;;;;;;1049444;28;20419;-69
2023/12/12 02:05:52;;;;;;;21.40;14.15;;;;;;;;;;1047195;28;21005;-69
2023/12/12 02:06:23;;;;;;;21.63;15.07;;;;;;;;;;1048240;28;20056;-69
2023/12/12 02:06:56;;;;;;;22.20;13.95;;;;;;;;;;1049375;28;20135;-69
2023/12/12 02:07:28;;;;;;;25.90;14.50;;;;;;;;;;1049154;28;20044;-69
2023/12/12 02:07:59;;;;;;;25.23;14.15;;;;;;;;;;1046101;28;20072;-70
2023/12/12 02:08:30;;;;;;;23.23;15.23;;;;;;;;;;1048794;28;20044;-69
2023/12/12 02:09:01;;;;;;;23.63;15.70;;;;;;;;;;1047387;28;20119;-69
2023/12/12 02:09:31;;;;;;;23.52;15.02;;;;;;;;;;1045338;28;20040;-69
2023/12/12 02:10:02;;;;;;;25.20;16.05;;;;;;;;;;1046033;28;20408;-69
2023/12/12 02:10:33;;;;;;;21.83;13.65;;;;;;;;;;1050477;28;20036;-68
2023/12/12 02:11:04;;;;;;;22.15;15.45;;;;;;;;;;1046304;28;21000;-69
2023/12/12 02:11:35;;;;;;;23.95;14.10;;;;;;;;;;1046313;28;20719;-69
2023/12/12 02:12:05;;;;;;;25.52;14.68;;;;;;;;;;1048143;28;20467;-69
2023/12/12 02:12:36;;;;;;;26.13;14.82;;;;;;;;;;1048708;28;20405;-69
2023/12/12 02:13:07;;;;;;;25.30;14.95;;;;;;;;;;1047804;28;20047;-69
2023/12/12 02:13:37;;;;;;;29.25;16.25;;;;;;;;;;1046274;28;20059;-69
2023/12/12 02:14:11;;;;;;;26.45;14.65;;;;;;;;;;1044646;28;20131;-70
2023/12/12 02:14:42;;;;;;;24.08;14.50;;;;;;;;;;1042506;28;20053;-69
2023/12/12 02:15:15;;;;;;;23.25;14.75;;;;;;;;;;1042773;28;20123;-70
2023/12/12 02:15:45;;;;;;;23.02;14.27;;;;;;;;;;1042798;28;20116;-69
2023/12/12 02:16:17;;;;;;;22.92;14.50;;;;;;;;;;1044885;28;20436;-69
2023/12/12 02:16:47;;;;;;;21.33;13.73;;;;;;;;;;1044199;28;20125;-70
2023/12/12 02:17:18;;;;;;;26.45;14.65;;;;;;;;;;1043709;28;20033;-69
2023/12/12 02:17:49;;;;;;;23.92;13.80;;;;;;;;;;1043529;28;20040;-69
2023/12/12 02:18:20;;;;;;;21.00;14.13;;;;;;;;;;1042834;28;20717;-68
2023/12/12 02:18:50;;;;;;;23.50;14.40;;;;;;;;;;1041755;28;20398;-69
2023/12/12 02:19:21;;;;;;;23.52;14.85;;;;;;;;;;1042773;28;20456;-69
2023/12/12 02:19:52;;;;;;;26.02;15.38;;;;;;;;;;1044138;28;20041;-69
2023/12/12 02:20:23;;;;;;;25.02;15.15;;;;;;;;;;1044955;28;20052;-69
2023/12/12 02:20:53;;;;;;;20.80;13.38;;;;;;;;;;1043872;28;20124;-70
2023/12/12 02:21:24;;;;;;;23.23;15.35;;;;;;;;;;1041608;28;20595;-69
2023/12/12 02:21:54;;;;;;;25.33;14.98;;;;;;;;;;1043174;28;20049;-70
2023/12/12 02:22:25;;;;;;;22.98;14.52;;;;;;;;;;1043004;28;20068;-69
2023/12/12 02:22:55;;;;;;;25.55;14.90;;;;;;;;;;1042204;28;20052;-69
2023/12/12 02:23:30;;;;;;;21.73;14.00;;;;;;;;;;1044250;28;20083;-70
2023/12/12 02:24:00;;;;;;;23.33;14.63;;;;;;;;;;1043515;28;20381;-69
2023/12/12 02:24:31;;;;;;;24.33;14.43;;;;;;;;;;1044313;28;20455;-69
2023/12/12 02:25:02;;;;;;;26.13;15.02;;;;;;;;;;1042992;28;20090;-69
2023/12/12 02:25:32;;;;;;;24.33;14.68;;;;;;;;;;1042543;28;20037;-69
2023/12/12 02:26:03;;;;;;;24.38;15.00;;;;;;;;;;1044993;28;20049;-69
2023/12/12 02:26:34;;;;;;;24.30;14.18;;;;;;;;;;1042150;28;20045;-69
2023/12/12 02:27:05;;;;;;;27.77;15.13;;;;;;;;;;1042235;28;20056;-68
2023/12/12 02:27:39;;;;;;;26.42;14.75;;;;;;;;;;1043025;28;20124;-69
2023/12/12 02:28:10;;;;;;;23.48;14.43;;;;;;;;;;1044843;28;20068;-69
2023/12/12 02:28:41;;;;;;;27.55;15.30;;;;;;;;;;1044721;28;20110;-69
2023/12/12 02:29:12;;;;;;;28.50;14.43;;;;;;;;;;1041868;28;20110;-68
2023/12/12 02:29:42;;;;;;;26.27;16.02;;;;;;;;;;1043176;28;20114;-69
2023/12/12 02:30:16;;;;;;;22.80;15.05;;;;;;;;;;1043251;28;20453;-69
2023/12/12 02:30:46;;;;;;;24.02;14.93;;;;;;;;;;1042263;28;20114;-69
2023/12/12 02:31:17;;;;;;;27.88;15.88;;;;;;;;;;1043102;28;22008;-70
2023/12/12 02:31:48;;;;;;;25.75;15.75;;;;;;;;;;1044356;28;20044;-68
2023/12/12 02:32:19;;;;;;;23.70;14.25;;;;;;;;;;1044627;28;20650;-70
2023/12/12 02:32:49;;;;;;;25.15;15.73;;;;;;;;;;1044227;28;20039;-70
2023/12/12 02:33:20;;;;;;;27.10;14.77;;;;;;;;;;1044343;28;20055;-68
2023/12/12 02:33:50;;;;;;;25.52;15.57;;;;;;;;;;1046598;28;20055;-69
2023/12/12 02:34:21;;;;;;;31.35;15.90;;;;;;;;;;1045695;28;20449;-69
2023/12/12 02:34:51;;;;;;;25.15;14.57;;;;;;;;;;1045095;28;20044;-68
2023/12/12 02:35:22;;;;;;;26.00;14.55;;;;;;;;;;1045466;28;20442;-70
2023/12/12 02:35:52;;;;;;;27.50;15.10;;;;;;;;;;1043652;28;20092;-69
2023/12/12 02:36:23;;;;;;;26.17;15.70;;;;;;;;;;1046304;28;20052;-69
2023/12/12 02:36:54;;;;;;;26.48;15.68;;;;;;;;;;1044831;28;20036;-69
2023/12/12 02:37:24;;;;;;;27.67;15.77;;;;;;;;;;1045431;28;20131;-69
2023/12/12 02:37:55;;;;;;;25.40;14.85;;;;;;;;;;1044901;28;20131;-69
2023/12/12 02:38:25;;;;;;;27.27;14.98;;;;;;;;;;1046988;28;20477;-69
2023/12/12 02:38:56;;;;;;;24.80;14.90;;;;;;;;;;1047556;28;20119;-69
2023/12/12 02:39:27;;;;;;;26.30;15.93;;;;;;;;;;1049746;28;20044;-69
2023/12/12 02:39:57;;;;;;;25.92;15.40;;;;;;;;;;1046226;28;20053;-69
2023/12/12 02:40:28;;;;;;;25.15;15.77;;;;;;;;;;1048902;28;20048;-69
2023/12/12 02:40:58;;;;;;;23.17;15.02;;;;;;;;;;1047751;28;20544;-69
2023/12/12 02:41:29;;;;;;;26.20;15.68;;;;;;;;;;1050508;28;20051;-70
2023/12/12 02:41:59;;;;;;;25.10;14.60;;;;;;;;;;1047866;28;20774;-69
2023/12/12 02:42:30;;;;;;;22.52;15.02;;;;;;;;;;1048510;28;20095;-69
2023/12/12 02:43:01;;;;;;;24.15;14.80;;;;;;;;;;1049856;28;20123;-69
2023/12/12 02:43:31;;;;;;;21.50;14.10;;;;;;;;;;1047767;28;20106;-69
2023/12/12 02:44:03;;;;;;;25.23;15.35;;;;;;;;;;1045389;28;20056;-69
2023/12/12 02:44:33;;;;;;;24.58;14.52;;;;;;;;;;1045722;28;20032;-69
2023/12/12 02:45:04;;;;;;;24.02;14.48;;;;;;;;;;1040934;28;20409;-70
2023/12/12 02:45:34;;;;;;;26.08;14.68;;;;;;;;;;1045057;28;20811;-69
2023/12/12 02:46:06;;;;;;;25.10;15.15;;;;;;;;;;1050081;28;20040;-70
2023/12/12 02:46:39;;;;;;;26.13;15.50;;;;;;;;;;1050271;28;20060;-68
2023/12/12 02:47:10;;;;;;;31.10;16.45;;;;;;;;;;1048532;28;20875;-68
2023/12/12 02:47:40;;;;;;;27.13;15.18;;;;;;;;;;1049341;28;20067;-70
2023/12/12 02:48:11;;;;;;;25.08;15.38;;;;;;;;;;1049249;28;20067;-68
2023/12/12 02:48:42;;;;;;;26.63;15.93;;;;;;;;;;1051084;28;20052;-69
2023/12/12 02:49:12;;;;;;;27.25;15.82;;;;;;;;;;1047589;28;20044;-70
2023/12/12 02:49:43;;;;;;;25.02;15.30;;;;;;;;;;1050178;28;20044;-69
2023/12/12 02:50:13;;;;;;;32.45;16.55;;;;;;;;;;1042480;28;20068;-69
2023/12/12 02:50:44;;;;;;;26.23;16.35;;;;;;;;;;1043756;28;20452;-69
2023/12/12 02:51:15;;;;;;;28.30;15.40;;;;;;;;;;1045865;28;20041;-68
2023/12/12 02:51:45;;;;;;;24.27;16.25;;;;;;;;;;1045718;28;20476;-69
2023/12/12 02:52:16;;;;;;;29.05;16.50;;;;;;;;;;1044579;28;20136;-69
2023/12/12 02:52:46;;;;;;;31.40;16.10;;;;;;;;;;1045296;28;20048;-69
2023/12/12 02:53:17;;;;;;;24.42;15.20;;;;;;;;;;1045787;28;20059;-68
2023/12/12 02:53:47;;;;;;;24.98;14.45;;;;;;;;;;1045219;28;20048;-68
2023/12/12 02:54:18;;;;;;;27.10;15.88;;;;;;;;;;1046190;28;20125;-69
2023/12/12 02:54:49;;;;;;;25.33;15.88;;;;;;;;;;1046056;28;20036;-68
2023/12/12 02:55:19;;;;;;;25.25;15.50;;;;;;;;;;1044534;28;20033;-68
2023/12/12 02:55:50;;;;;;;26.35;15.25;;;;;;;;;;1047372;28;20051;-70
2023/12/12 02:56:20;;;;;;;25.70;15.80;;;;;;;;;;1047183;28;20052;-70
2023/12/12 02:56:51;;;;;;;27.40;15.93;;;;;;;;;;1047845;28;20078;-68
2023/12/12 02:57:23;;;;;;;28.75;15.50;;;;;;;;;;1050768;28;20040;-69
2023/12/12 02:57:53;;;;;;;26.48;15.82;;;;;;;;;;1050893;28;20069;-70
2023/12/12 02:58:24;;;;;;;29.05;16.42;;;;;;;;;;1051431;28;20036;-69
2023/12/12 02:58:55;;;;;;;23.48;15.27;;;;;;;;;;1045418;28;20513;-69
2023/12/12 02:59:25;;;;;;;24.88;14.85;;;;;;;;;;1046901;28;20567;-69
2023/12/12 02:59:56;;;;;;;27.33;15.35;;;;;;;;;;1045635;28;20405;-69